Columbia (COU/KCOU)

Map

Destinations

Information

Location
Columbia, Missouri
Local Time
03:14 / 3:14 am
GMT Time
08:14 / 8:14 am
Gates
Unassigned
No FAA reported delays
METAR KCOU 270754Z AUTO 05006KT 9SM BKN024 19/19 A2986 RMK AO2 SLP103 T01940189
TAF KCOU 270813Z 2708/2806 04004KT P6SM SCT024 TEMPO 2708/2712 5SM BR BKN024 FM271300 09005KT P6SM SCT100 FM271600 10005KT P6SM BKN040 FM272200 13008KT P6SM BKN035 TEMPO 2722/2802 VRB35KT 2SM TSRA BKN020CB